Time;durP1;ratioP1;P1;durP2;ratioP2;P2;SDS_P1;SDS_P2;PMS_P1;PMS_P2;Temp;Humidity;BMP_temperature;BMP_pressure;BME280_temperature;BME280_humidity;BME280_pressure;Samples;Min_cycle;Max_cycle;Signal;HPM_P1;HPM_P2
2023/12/13 00:01:12;;;;;;;19.6;9.7;;;;;;;3.49;84.81;;;;;
2023/12/13 00:12:11;;;;;;;20.1;10.6;;;;;;;3.5;84.37;;;;;
2023/12/13 00:22:11;;;;;;;20.1;10.6;;;;;;;3.49;84.1;;;;;
2023/12/13 00:33:12;;;;;;;20.1;10.6;;;;;;;3.42;84.04;;;;;
2023/12/13 00:44:11;;;;;;;20.2;10.7;;;;;;;3.47;83.87;;;;;
2023/12/13 00:54:11;;;;;;;20.2;10.7;;;;;;;3.51;83.43;;;;;
2023/12/13 01:05:12;;;;;;;17.1;10.3;;;;;;;3.29;83.65;;;;;
2023/12/13 01:16:12;;;;;;;17.1;10.3;;;;;;;3.19;83.72;;;;;
2023/12/13 01:27:11;;;;;;;17.1;10.3;;;;;;;3.19;84.17;;;;;
2023/12/13 01:38:12;;;;;;;18.7;10.4;;;;;;;3.17;83.86;;;;;
2023/12/13 01:48:12;;;;;;;18.7;10.4;;;;;;;3.15;84.19;;;;;
2023/12/13 01:59:12;;;;;;;18.7;10.4;;;;;;;3.21;83.98;;;;;
2023/12/13 02:09:12;;;;;;;15;9;;;;;;;3.14;83.99;;;;;
2023/12/13 02:19:12;;;;;;;15;9;;;;;;;3.24;84.04;;;;;
2023/12/13 02:30:12;;;;;;;15;9;;;;;;;3.26;83.93;;;;;
2023/12/13 02:41:12;;;;;;;15.2;7.8;;;;;;;3.04;84.66;;;;;
2023/12/13 02:52:12;;;;;;;15.2;7.8;;;;;;;3.21;84.65;;;;;
2023/12/13 03:03:11;;;;;;;15.2;7.8;;;;;;;3.24;84.66;;;;;
2023/12/13 03:13:12;;;;;;;14.6;6.9;;;;;;;3.18;84.55;;;;;
2023/12/13 03:23:12;;;;;;;14.6;6.9;;;;;;;3.2;84.55;;;;;
2023/12/13 03:34:14;;;;;;;15.3;7.9;;;;;;;3.37;84.38;;;;;
2023/12/13 03:45:11;;;;;;;15.3;7.9;;;;;;;3.42;84.15;;;;;
2023/12/13 03:55:12;;;;;;;15.3;7.9;;;;;;;3.34;83.97;;;;;
2023/12/13 04:06:12;;;;;;;16.9;9.4;;;;;;;3.46;83.91;;;;;
2023/12/13 04:17:12;;;;;;;16.9;9.4;;;;;;;3.26;84.44;;;;;
2023/12/13 04:28:12;;;;;;;16.9;9.4;;;;;;;3.19;84.79;;;;;
2023/12/13 04:38:12;;;;;;;17.2;10.4;;;;;;;3.26;85.32;;;;;
2023/12/13 04:49:12;;;;;;;17.2;10.4;;;;;;;3.11;85.47;;;;;
2023/12/13 04:59:12;;;;;;;17.2;10.4;;;;;;;3.22;85.16;;;;;
2023/12/13 05:10:12;;;;;;;18.8;10.1;;;;;;;2.92;85.89;;;;;
2023/12/13 05:20:12;;;;;;;18.8;10.1;;;;;;;2.86;86.26;;;;;
2023/12/13 05:30:12;;;;;;;18.8;10.1;;;;;;;2.9;86.4;;;;;
2023/12/13 05:41:12;;;;;;;16.5;9.7;;;;;;;2.63;87.51;;;;;
2023/12/13 05:51:12;;;;;;;16.5;9.7;;;;;;;2.92;87.06;;;;;
2023/12/13 06:02:12;;;;;;;16.5;9.7;;;;;;;2.93;87.4;;;;;
2023/12/13 06:13:12;;;;;;;16.9;9.4;;;;;;;2.94;87.08;;;;;
2023/12/13 06:23:12;;;;;;;16.9;9.4;;;;;;;2.68;87.11;;;;;
2023/12/13 06:34:12;;;;;;;12.4;8.4;;;;;;;2.62;87.24;;;;;
2023/12/13 06:44:12;;;;;;;12.4;8.4;;;;;;;2.73;86.97;;;;;
2023/12/13 06:54:12;;;;;;;12.4;8.4;;;;;;;2.72;86.5;;;;;
2023/12/13 07:04:12;;;;;;;12.2;7.9;;;;;;;2.37;87.64;;;;;
2023/12/13 07:15:12;;;;;;;12.2;7.9;;;;;;;2.58;87.39;;;;;
2023/12/13 07:25:12;;;;;;;12.2;7.9;;;;;;;2.52;87.81;;;;;
2023/12/13 07:36:13;;;;;;;10.4;6.2;;;;;;;2.96;87.25;;;;;
2023/12/13 07:46:13;;;;;;;10.4;6.2;;;;;;;3.27;86.65;;;;;
2023/12/13 07:56:12;;;;;;;10.4;6.2;;;;;;;3.47;86.47;;;;;
2023/12/13 08:06:12;;;;;;;13.3;7.3;;;;;;;3.46;85.71;;;;;
2023/12/13 08:16:12;;;;;;;13.3;7.3;;;;;;;3.58;85.28;;;;;
2023/12/13 08:27:12;;;;;;;13.3;7.3;;;;;;;3.33;86.17;;;;;
2023/12/13 08:37:12;;;;;;;15.6;8;;;;;;;3.35;86.82;;;;;
2023/12/13 08:48:12;;;;;;;15.6;8;;;;;;;3.53;87.18;;;;;
2023/12/13 08:58:13;;;;;;;15.6;8;;;;;;;3.77;86.45;;;;;
2023/12/13 09:08:13;;;;;;;18.8;10.9;;;;;;;4.07;86.75;;;;;
2023/12/13 09:18:12;;;;;;;18.8;10.9;;;;;;;4.24;85.97;;;;;
2023/12/13 09:28:12;;;;;;;18.8;10.9;;;;;;;4.43;84.78;;;;;
2023/12/13 09:38:12;;;;;;;12.9;7.8;;;;;;;4.23;84.41;;;;;
2023/12/13 09:49:12;;;;;;;12.9;7.8;;;;;;;4.28;84.72;;;;;
2023/12/13 10:00:12;;;;;;;12.9;7.8;;;;;;;4.42;84.41;;;;;
2023/12/13 10:10:12;;;;;;;10.6;6.4;;;;;;;4.41;84.54;;;;;
2023/12/13 10:20:12;;;;;;;10.6;6.4;;;;;;;4.67;83.92;;;;;
2023/12/13 10:30:12;;;;;;;10.6;6.4;;;;;;;4.6;84.69;;;;;
2023/12/13 10:40:13;;;;;;;12.8;6.5;;;;;;;4.96;84.53;;;;;
2023/12/13 10:51:12;;;;;;;12.8;6.5;;;;;;;5.14;83.13;;;;;
2023/12/13 11:01:12;;;;;;;12.8;6.5;;;;;;;4.84;84.37;;;;;
2023/12/13 11:12:12;;;;;;;12.4;6.5;;;;;;;4.94;84.48;;;;;
2023/12/13 11:22:12;;;;;;;12.4;6.5;;;;;;;4.39;86.32;;;;;
2023/12/13 11:33:12;;;;;;;14.4;8.5;;;;;;;4.66;85.89;;;;;
2023/12/13 11:44:12;;;;;;;14.4;8.5;;;;;;;4.96;85.28;;;;;
2023/12/13 11:54:12;;;;;;;14.4;8.5;;;;;;;5.04;84.63;;;;;
2023/12/13 12:05:12;;;;;;;17;10.7;;;;;;;5.2;84.18;;;;;
2023/12/13 12:15:12;;;;;;;17;10.7;;;;;;;4.85;85.18;;;;;
2023/12/13 12:25:12;;;;;;;17;10.7;;;;;;;5.13;85.17;;;;;
2023/12/13 12:36:12;;;;;;;19.1;11.1;;;;;;;5.18;84.98;;;;;
2023/12/13 12:46:12;;;;;;;19.1;11.1;;;;;;;5.22;84.65;;;;;
2023/12/13 12:57:12;;;;;;;19.1;11.1;;;;;;;5.74;84.12;;;;;
2023/12/13 13:08:12;;;;;;;24.2;14;;;;;;;5.47;84.08;;;;;
2023/12/13 13:18:12;;;;;;;24.2;14;;;;;;;5.49;84.22;;;;;
2023/12/13 13:28:12;;;;;;;24.2;14;;;;;;;5.33;84.53;;;;;
2023/12/13 13:39:13;;;;;;;27.1;17.1;;;;;;;5.14;85.3;;;;;
2023/12/13 13:49:12;;;;;;;27.1;17.1;;;;;;;5.07;86.07;;;;;
2023/12/13 14:00:13;;;;;;;27.1;17.1;;;;;;;5.14;86.11;;;;;
2023/12/13 14:11:12;;;;;;;23.8;15;;;;;;;4.92;86.82;;;;;
2023/12/13 14:22:12;;;;;;;23.8;15;;;;;;;4.84;86.66;;;;;
2023/12/13 14:33:12;;;;;;;26;16.3;;;;;;;4.92;86.75;;;;;
2023/12/13 14:43:12;;;;;;;26;16.3;;;;;;;4.81;86.5;;;;;
2023/12/13 14:54:12;;;;;;;26;16.3;;;;;;;4.81;86.4;;;;;
2023/12/13 15:05:12;;;;;;;17.8;11;;;;;;;4.95;86.45;;;;;
2023/12/13 15:15:12;;;;;;;17.8;11;;;;;;;4.6;87.04;;;;;
2023/12/13 15:26:12;;;;;;;17.8;11;;;;;;;4.72;86.97;;;;;
2023/12/13 15:37:12;;;;;;;51.2;28;;;;;;;4.85;86.65;;;;;
2023/12/13 15:47:12;;;;;;;51.2;28;;;;;;;4.89;86.93;;;;;
2023/12/13 15:58:12;;;;;;;51.2;28;;;;;;;4.88;86.74;;;;;
2023/12/13 16:08:12;;;;;;;24.9;14.7;;;;;;;5;86.88;;;;;
2023/12/13 16:19:13;;;;;;;24.9;14.7;;;;;;;4.91;86.43;;;;;
2023/12/13 16:30:12;;;;;;;24.9;14.7;;;;;;;4.94;86.66;;;;;
2023/12/13 16:41:12;;;;;;;27;15.4;;;;;;;4.88;86.95;;;;;
2023/12/13 16:51:12;;;;;;;27;15.4;;;;;;;4.98;86.83;;;;;
2023/12/13 17:02:12;;;;;;;18.6;11.8;;;;;;;5.04;86.33;;;;;
2023/12/13 17:12:12;;;;;;;18.6;11.8;;;;;;;4.99;86.32;;;;;
2023/12/13 17:23:12;;;;;;;18.6;11.8;;;;;;;5.05;86.28;;;;;
2023/12/13 17:33:12;;;;;;;21.9;13.7;;;;;;;4.92;86.32;;;;;
2023/12/13 17:44:12;;;;;;;21.9;13.7;;;;;;;4.96;86.35;;;;;
2023/12/13 17:54:14;;;;;;;21.9;13.7;;;;;;;4.95;86.39;;;;;
2023/12/13 18:04:12;;;;;;;24.7;15.1;;;;;;;4.95;86.67;;;;;
2023/12/13 18:15:12;;;;;;;24.7;15.1;;;;;;;4.89;86.76;;;;;
2023/12/13 18:25:12;;;;;;;24.7;15.1;;;;;;;4.8;87.09;;;;;
2023/12/13 18:35:12;;;;;;;25.5;15.5;;;;;;;4.83;87.44;;;;;
2023/12/13 18:46:12;;;;;;;25.5;15.5;;;;;;;4.89;87.14;;;;;
2023/12/13 18:56:12;;;;;;;25.5;15.5;;;;;;;4.99;86.9;;;;;
2023/12/13 19:07:12;;;;;;;22.3;14.6;;;;;;;5.06;86.45;;;;;
2023/12/13 19:18:14;;;;;;;22.3;14.6;;;;;;;4.92;86.48;;;;;
2023/12/13 19:28:15;;;;;;;22.3;14.6;;;;;;;4.87;86.97;;;;;
2023/12/13 19:39:12;;;;;;;33.1;19.5;;;;;;;4.73;87.97;;;;;
2023/12/13 19:49:12;;;;;;;33.1;19.5;;;;;;;4.77;87.53;;;;;
2023/12/13 20:00:12;;;;;;;33.1;19.5;;;;;;;4.83;87.84;;;;;
2023/12/13 20:11:12;;;;;;;35.9;22.8;;;;;;;4.69;88.14;;;;;
2023/12/13 20:21:13;;;;;;;35.9;22.8;;;;;;;4.5;88.55;;;;;
2023/12/13 20:31:13;;;;;;;35.9;22.8;;;;;;;4.44;88.85;;;;;
2023/12/13 20:42:12;;;;;;;40;21.4;;;;;;;4.39;89.19;;;;;
2023/12/13 20:52:12;;;;;;;40;21.4;;;;;;;4.44;89.5;;;;;
2023/12/13 21:03:12;;;;;;;40.2;20;;;;;;;4.48;89.52;;;;;
2023/12/13 21:14:12;;;;;;;40.2;20;;;;;;;4.56;89.39;;;;;
2023/12/13 21:24:12;;;;;;;40.2;20;;;;;;;4.53;89.1;;;;;
2023/12/13 21:34:12;;;;;;;44.9;25.4;;;;;;;4.55;88.96;;;;;
2023/12/13 21:44:12;;;;;;;44.9;25.4;;;;;;;4.54;88.75;;;;;
2023/12/13 21:55:12;;;;;;;44.9;25.4;;;;;;;4.57;88.83;;;;;
2023/12/13 22:05:12;;;;;;;44.6;24;;;;;;;4.72;88.51;;;;;
2023/12/13 22:15:12;;;;;;;44.6;24;;;;;;;4.66;88.66;;;;;
2023/12/13 22:26:12;;;;;;;44.6;24;;;;;;;4.41;89.13;;;;;
2023/12/13 22:36:12;;;;;;;37.7;21.9;;;;;;;4.44;88.74;;;;;
2023/12/13 22:46:13;;;;;;;37.7;21.9;;;;;;;4.49;89.15;;;;;
2023/12/13 22:57:12;;;;;;;37.7;21.9;;;;;;;4.59;88.76;;;;;
2023/12/13 23:08:12;;;;;;;32;17.5;;;;;;;4.58;88.42;;;;;
2023/12/13 23:19:13;;;;;;;32;17.5;;;;;;;4.52;88.74;;;;;
2023/12/13 23:30:12;;;;;;;32;17.5;;;;;;;4.73;88.79;;;;;
2023/12/13 23:41:12;;;;;;;36.9;19.4;;;;;;;4.83;88.06;;;;;
2023/12/13 23:52:12;;;;;;;36.9;19.4;;;;;;;4.73;87.88;;;;;
